Last 7 Days

Williams 2

Hourly Data | America/Los_Angeles
as of 6/4/20 6:21 AM PDT
Date & Time Temp (°F) RH (%) Dew Pt (°F) Wind Spd (mph) Wind Dir (°) Wind Gust (mph) Latest Rain (In) Daily Rain (In) Daily Min Temp (°F) Daily Max Temp (°F)
6/4/20 - 0600 61.9 64 49.6 1.3 NW | 325 6.1 0.00 0.00 58.0 66.1
6/4/20 - 0500 61.8 66 50.2 2.9 NNW | 340 9.5 0.00 0.00 58.0 65.6
6/4/20 - 0400 59.9 67 48.9 0.4 NE | 37 3.1 0.00 0.00 58.4 64.8
6/4/20 - 0300 62.8 60 48.8 2.0 NNW | 340 6.1 0.00 0.00 60.7 64.8
6/4/20 - 0200 62.2 59 47.9 0.3 NE | 44 3.1 0.00 0.00 61.5 63.8
6/4/20 - 0100 66.3 50 46.9 0.8 NNW | 345 4.1 0.00 0.00 60.7 99.3
6/4/20 - 0000 67.8 46 46.6 1.6 NNW | 340 6.8 0.00 0.00 60.7 99.3
6/3/20 - 2300 70.5 42 46.3 1.0 NNW | 345 5.8 0.00 0.00 60.7 99.3
6/3/20 - 2200 76.4 32 44.7 1.6 N | 350 5.8 0.00 0.00 60.7 99.3
6/3/20 - 2100 84.5 24 43.6 2.9 NNW | 334 9.8 0.00 0.00 60.7 99.3
6/3/20 - 2000 90.0 22 46.2 4.3 W | 270 8.4 0.00 0.00 60.7 99.3
6/3/20 - 1900 95.8 19 46.7 2.9 WNW | 293 9.5 0.00 0.00 60.7 99.3
6/3/20 - 1800 95.7 23 51.4 6.1 W | 262 14.8 0.00 0.00 60.7 99.3
6/3/20 - 1700 97.4 24 54.0 6.2 W | 262 13.5 0.00 0.00 60.7 99.3
6/3/20 - 1600 98.6 18 47.8 5.2 SW | 232 11.5 0.00 0.00 60.7 99.3
6/3/20 - 1500 98.3 22 52.8 5.9 SSE | 167 14.5 0.00 0.00 60.7 99.2
6/3/20 - 1400 96.3 24 53.5 3.6 SSE | 147 10.8 0.00 0.00 60.7 98.1
6/3/20 - 1300 93.2 28 54.9 2.9 SSE | 152 7.4 0.00 0.00 60.7 94.9
6/3/20 - 1200 89.9 32 56.5 3.0 S | 176 8.1 0.00 0.00 60.7 91.3
6/3/20 - 1100 87.8 36 57.8 3.0 S | 170 8.4 0.00 0.00 60.7 89.7
6/3/20 - 1000 84.7 40 57.8 1.6 S | 174 5.1 0.00 0.00 60.7 86.5
6/3/20 - 0900 79.7 48 58.2 0.4 SSW | 193 3.4 0.00 0.00 60.7 82.5
6/3/20 - 0800 70.9 61 57.0 0.2 SE | 138 2.7 0.00 0.00 60.7 77.0
6/3/20 - 0700 62.7 73 54.1 0.3 N | 4 2.4 0.00 0.00 60.7 72.4
6/3/20 - 0600 63.0 69 52.7 0.4 ESE | 108 3.4 0.00 0.00 60.9 72.4
6/3/20 - 0500 69.3 57 53.4 2.2 NNW | 333 5.8 0.00 0.00 66.3 72.4
6/3/20 - 0400 70.3 55 53.2 3.6 NNW | 340 7.4 0.00 0.00 69.3 72.4
6/3/20 - 0300 71.1 53 53.3 5.0 NNW | 338 9.5 0.00 0.00 70.1 72.4
6/3/20 - 0200 71.4 53 53.6 6.5 NNW | 331 10.5 0.00 0.00 70.8 72.4
6/3/20 - 0100 71.7 53 53.8 6.1 NNW | 333 10.5 0.00 0.00 63.8 95.3
6/3/20 - 0000 71.6 53 53.8 2.3 NNW | 344 6.4 0.00 0.00 63.8 95.3
6/2/20 - 2300 73.3 50 53.4 3.5 NNW | 345 6.8 0.00 0.00 63.8 95.3
6/2/20 - 2200 76.1 44 52.8 3.7 NNW | 340 7.1 0.00 0.00 63.8 95.3
6/2/20 - 2100 80.1 39 52.8 1.8 NNW | 348 4.1 0.00 0.00 63.8 95.3
6/2/20 - 2000 87.4 30 52.4 2.9 NW | 319 7.4 0.00 0.00 63.8 95.3
6/2/20 - 1900 89.3 29 52.5 5.7 WSW | 253 11.8 0.00 0.00 63.8 95.3
6/2/20 - 1800 92.1 28 54.8 5.4 WSW | 245 11.8 0.00 0.00 63.8 95.3
6/2/20 - 1700 92.9 28 55.5 6.2 SW | 230 12.8 0.00 0.00 63.8 95.3
6/2/20 - 1600 94.4 28 56.5 5.3 S | 184 14.2 0.00 0.00 63.8 95.3
6/2/20 - 1500 93.6 29 56.3 3.6 S | 184 9.8 0.00 0.00 63.8 94.7
6/2/20 - 1400 91.8 30 55.9 4.5 SE | 140 10.5 0.00 0.00 63.8 93.4
6/2/20 - 1300 89.9 32 56.1 4.1 SSE | 168 9.1 0.00 0.00 63.8 91.7
6/2/20 - 1200 87.7 34 55.9 3.3 S | 181 8.4 0.00 0.00 63.8 89.4
6/2/20 - 1100 84.1 38 56.0 2.6 SSW | 192 7.4 0.00 0.00 63.8 85.9
6/2/20 - 1000 79.8 45 56.3 2.0 S | 181 6.1 0.00 0.00 63.8 82.5
6/2/20 - 0900 74.8 52 56.1 0.8 S | 182 3.4 0.00 0.00 63.8 76.8
6/2/20 - 0800 70.2 60 55.8 0.4 SW | 231 3.1 0.00 0.00 63.8 73.3
6/2/20 - 0700 64.8 67 53.7 1.4 NNW | 329 5.8 0.00 0.00 63.8 66.1
6/2/20 - 0600 64.9 66 53.3 5.1 NNW | 336 8.8 0.00 0.00 64.2 66.1
6/2/20 - 0500 65.3 65 53.2 6.1 NNW | 345 10.8 0.00 0.00 64.8 66.1
6/2/20 - 0400 65.4 63 52.6 6.3 NNW | 346 11.1 0.00 0.00 64.8 66.1
6/2/20 - 0300 65.4 62 52.0 5.0 N | 350 9.1 0.00 0.00 65.0 65.8
6/2/20 - 0200 65.7 60 51.5 4.3 NNW | 348 8.8 0.00 0.00 65.3 65.8
6/2/20 - 0100 66.3 58 51.2 4.3 NNW | 344 8.8 0.00 0.00 56.5 86.3
6/2/20 - 0000 66.6 59 51.7 5.6 NNW | 336 9.5 0.00 0.00 56.5 86.3
6/1/20 - 2300 67.4 57 51.7 4.1 NNW | 348 8.4 0.00 0.00 56.5 86.3
6/1/20 - 2200 68.9 53 50.9 2.2 NNW | 348 5.8 0.00 0.00 56.5 86.3
6/1/20 - 2100 72.9 45 50.5 2.8 NNW | 337 8.4 0.00 0.00 56.5 86.3
6/1/20 - 2000 79.1 40 53.0 3.9 NNW | 341 8.1 0.00 0.00 56.5 86.3
6/1/20 - 1900 82.7 37 53.6 3.6 WNW | 288 8.8 0.00 0.00 56.5 86.3
6/1/20 - 1800 83.8 34 52.8 4.8 WSW | 256 12.1 0.00 0.00 56.5 86.3
6/1/20 - 1700 84.8 33 52.8 5.5 WSW | 242 11.5 0.00 0.00 56.5 86.3
6/1/20 - 1600 85.0 34 53.6 4.8 S | 183 12.1 0.00 0.00 56.5 86.3
6/1/20 - 1500 83.7 35 53.4 4.6 SSW | 204 11.1 0.00 0.00 56.5 85.3
6/1/20 - 1400 81.3 37 52.9 4.3 S | 186 10.5 0.00 0.00 56.5 82.5
6/1/20 - 1300 79.4 38 51.6 3.4 SSW | 200 9.1 0.00 0.00 56.5 81.2
6/1/20 - 1200 76.0 45 53.0 2.8 ESE | 108 8.8 0.00 0.00 56.5 77.9
6/1/20 - 1100 72.0 54 54.6 2.4 S | 191 6.8 0.00 0.00 56.5 74.2
6/1/20 - 1000 67.6 63 54.4 3.1 N | 5 7.8 0.00 0.00 56.5 69.9
6/1/20 - 0900 62.9 71 53.4 1.0 NW | 308 8.1 0.00 0.00 56.5 65.2
6/1/20 - 0800 59.1 78 52.4 0.5 SSE | 168 3.1 0.00 0.00 56.5 60.8
6/1/20 - 0700 56.9 82 51.6 0.0 NW | 315 2.1 0.00 0.00 56.5 59.3
6/1/20 - 0600 56.9 81 51.3 0.1 S | 188 2.4 0.00 0.00 56.7 59.3
6/1/20 - 0500 57.1 80 51.1 2.1 E | 91 5.8 0.00 0.00 56.8 59.3
6/1/20 - 0400 58.5 77 51.3 0.9 ESE | 107 4.1 0.00 0.00 57.8 59.3
6/1/20 - 0300 58.6 77 51.3 0.1 ESE | 106 3.1 0.00 0.00 58.4 59.3
6/1/20 - 0200 58.9 76 51.2 0.5 E | 86 3.4 0.00 0.00 58.5 59.3
6/1/20 - 0100 60.4 72 51.5 0.6 SE | 143 3.4 0.00 0.00 53.1 75.9
6/1/20 - 0000 60.5 72 51.6 0.8 NNW | 328 5.4 0.00 0.00 53.1 75.9
5/31/20 - 2300 58.1 76 50.7 0.2 N | 355 3.8 0.00 0.00 53.1 75.9
5/31/20 - 2200 62.0 68 51.4 0.9 NNW | 348 5.1 0.00 0.00 53.1 75.9
5/31/20 - 2100 64.8 64 52.1 2.3 N | 358 7.1 0.00 0.00 53.1 75.9
5/31/20 - 2000 67.6 59 53.0 4.8 W | 276 12.1 0.00 0.00 53.1 75.9
5/31/20 - 1900 70.0 58 54.5 5.7 W | 260 10.8 0.00 0.00 53.1 75.9
5/31/20 - 1800 71.6 56 55.0 6.4 WSW | 254 12.5 0.00 0.00 53.1 75.9
5/31/20 - 1700 73.7 51 54.4 6.2 W | 260 12.8 0.00 0.00 53.1 75.9
5/31/20 - 1600 74.8 48 53.8 5.0 WSW | 253 10.8 0.00 0.00 53.1 75.9
5/31/20 - 1500 73.5 50 53.8 5.2 WSW | 251 11.1 0.00 0.00 53.1 75.3
5/31/20 - 1400 73.6 51 54.2 5.3 SW | 223 12.8 0.00 0.00 53.1 75.3
5/31/20 - 1300 74.1 51 54.8 5.0 WSW | 244 12.1 0.00 0.00 53.1 75.3
5/31/20 - 1200 73.1 53 55.2 3.3 SW | 233 10.8 0.00 0.00 53.1 75.3
5/31/20 - 1100 69.8 58 54.6 2.1 SSW | 208 6.8 0.00 0.00 53.1 71.8
5/31/20 - 1000 65.5 67 54.3 3.4 N | 350 8.1 0.00 0.00 53.1 67.4
5/31/20 - 0900 63.1 73 54.5 1.5 N | 356 8.1 0.00 0.00 53.1 64.1
5/31/20 - 0800 59.2 82 53.5 0.1 SSW | 212 2.4 0.00 0.00 53.1 61.5
5/31/20 - 0700 55.2 90 52.2 0.0 N | 0 0.0 0.00 0.00 53.1 58.5
5/31/20 - 0600 53.8 90 50.8 0.0 N | 0 0.0 0.00 0.00 53.1 58.5
5/31/20 - 0500 56.3 85 51.9 0.1 N | 3 2.7 0.00 0.00 54.8 58.5
5/31/20 - 0400 58.2 84 53.4 0.9 NW | 318 5.1 0.00 0.00 57.0 58.5
5/31/20 - 0300 58.3 85 53.7 0.1 NE | 52 2.4 0.00 0.00 57.0 58.5
5/31/20 - 0200 57.9 86 53.7 0.0 N | 0 0.0 0.00 0.00 57.0 58.4
5/31/20 - 0100 56.1 88 52.5 0.1 W | 270 2.7 0.00 0.02 55.3 74.4
5/31/20 - 0000 57.5 85 52.9 0.2 NNE | 29 3.4 0.00 0.02 56.6 74.4
5/30/20 - 2300 60.7 79 54.0 1.2 ESE | 103 5.4 0.00 0.02 58.5 74.4
5/30/20 - 2200 63.3 73 54.4 3.2 ENE | 63 8.1 0.00 0.02 60.0 74.4
5/30/20 - 2100 64.7 69 54.3 3.6 W | 272 12.5 0.00 0.02 60.0 74.4
5/30/20 - 2000 67.2 64 54.8 4.9 W | 264 11.8 0.00 0.02 60.0 74.4
5/30/20 - 1900 69.4 62 55.8 6.4 W | 260 14.8 0.00 0.02 60.0 74.4
5/30/20 - 1800 70.0 63 56.6 6.9 WSW | 252 14.8 0.00 0.02 60.0 74.4
5/30/20 - 1700 70.3 63 57.0 7.0 WSW | 253 15.5 0.00 0.02 60.0 74.4
5/30/20 - 1600 72.4 58 56.6 4.5 WSW | 247 12.1 0.00 0.02 60.0 74.4
5/30/20 - 1500 71.0 60 56.2 1.5 S | 174 6.4 0.02 0.02 60.0 74.4
5/30/20 - 1400 72.5 49 52.1 2.8 ESE | 122 8.1 0.00 0.00 60.0 74.4
5/30/20 - 1300 73.0 48 52.4 3.5 SE | 135 8.8 0.00 0.00 60.0 74.4
5/30/20 - 1200 71.8 52 53.2 3.3 SSE | 147 11.8 0.00 0.00 60.0 73.2
5/30/20 - 1100 67.4 64 54.6 1.9 ESE | 107 7.8 0.00 0.00 60.0 69.7
5/30/20 - 1000 63.6 75 55.6 2.0 SW | 229 6.4 0.00 0.00 60.0 65.0
5/30/20 - 0900 62.1 75 54.2 2.9 S | 179 8.1 0.00 0.00 60.0 63.4
5/30/20 - 0800 62.7 70 52.8 1.8 SSW | 211 5.1 0.00 0.00 60.0 63.4
5/30/20 - 0700 61.6 72 52.5 2.5 W | 261 8.1 0.00 0.00 60.0 62.4
5/30/20 - 0600 60.6 75 52.5 3.8 NW | 310 8.8 0.00 0.00 60.0 61.4
5/30/20 - 0500 60.9 74 52.6 4.3 WNW | 303 12.5 0.00 0.00 60.0 61.4
5/30/20 - 0400 61.3 72 52.2 4.7 W | 273 14.5 0.00 0.00 60.0 61.4
5/30/20 - 0300 60.9 74 52.5 4.0 W | 270 11.5 0.00 0.00 60.0 61.2
5/30/20 - 0200 60.5 75 52.7 4.2 W | 267 12.5 0.00 0.00 60.0 60.9
5/30/20 - 0100 60.2 76 52.5 4.6 W | 269 12.8 0.00 0.00 55.0 80.9
5/30/20 - 0000 60.3 75 52.4 4.6 W | 259 12.1 0.00 0.00 55.0 80.9
5/29/20 - 2300 60.8 75 52.9 3.7 WNW | 285 10.5 0.00 0.00 55.0 80.9
5/29/20 - 2200 61.6 73 53.0 3.9 WSW | 246 10.5 0.00 0.00 55.0 80.9
5/29/20 - 2100 64.2 67 53.1 2.4 NW | 319 14.5 0.00 0.00 55.0 80.9
5/29/20 - 2000 68.7 60 54.2 5.2 NW | 324 14.5 0.00 0.00 55.0 80.9
5/29/20 - 1900 72.5 54 55.1 3.2 SSW | 199 12.1 0.00 0.00 55.0 80.9
5/29/20 - 1800 73.1 55 56.0 7.5 WSW | 243 17.8 0.00 0.00 55.0 80.9
5/29/20 - 1700 76.6 50 56.8 7.5 WSW | 238 15.8 0.00 0.00 55.0 80.9
5/29/20 - 1600 79.0 46 56.6 5.5 NW | 319 18.5 0.00 0.00 55.0 80.9
5/29/20 - 1500 78.6 47 56.5 6.8 N | 352 12.8 0.00 0.00 55.0 80.9
5/29/20 - 1400 79.1 45 55.9 6.7 N | 349 14.2 0.00 0.00 55.0 80.9
5/29/20 - 1300 77.6 46 55.2 7.8 NNW | 339 14.8 0.00 0.00 55.0 79.1
5/29/20 - 1200 78.3 44 54.7 6.8 NNW | 341 14.5 0.00 0.00 55.0 79.0
5/29/20 - 1100 76.0 48 55.0 3.3 N | 10 11.5 0.00 0.00 55.0 78.5
5/29/20 - 1000 71.3 54 53.7 2.7 WSW | 253 8.8 0.00 0.00 55.0 73.9
5/29/20 - 0900 65.7 65 53.5 3.6 NW | 314 9.5 0.00 0.00 55.0 67.7
5/29/20 - 0800 64.7 69 54.2 0.9 SE | 126 3.8 0.00 0.00 55.0 66.6
5/29/20 - 0700 58.0 83 52.7 0.7 E | 96 3.8 0.00 0.00 55.0 61.4
5/29/20 - 0600 55.7 84 50.8 0.2 ESE | 106 2.4 0.00 0.00 55.0 59.3
5/29/20 - 0500 56.2 84 51.5 1.0 N | 358 6.8 0.00 0.00 55.1 59.3
5/29/20 - 0400 56.0 84 51.3 0.7 NE | 37 3.4 0.00 0.00 55.6 59.3
5/29/20 - 0300 57.2 81 51.5 0.6 NE | 54 3.4 0.00 0.00 56.5 59.3
5/29/20 - 0200 58.5 78 51.8 1.0 ENE | 61 4.8 0.00 0.00 57.5 59.3
5/29/20 - 0100 61.1 73 52.3 2.4 E | 97 8.8 0.00 0.00 54.3 99.0
5/29/20 - 0000 66.0 61 52.4 4.4 NW | 306 11.5 0.00 0.00 54.3 99.0
5/28/20 - 2300 69.5 56 53.1 2.7 NW | 305 9.1 0.00 0.00 54.3 99.0
5/28/20 - 2200 72.3 53 54.4 4.6 NNW | 343 10.8 0.00 0.00 54.3 99.0
5/28/20 - 2100 75.8 49 54.9 6.9 NW | 317 12.8 0.00 0.00 54.3 99.0
5/28/20 - 2000 85.7 37 56.2 4.0 NNW | 338 8.8 0.00 0.00 54.3 99.0
5/28/20 - 1900 91.3 33 58.1 4.8 NW | 315 11.1 0.00 0.00 54.3 99.0
5/28/20 - 1800 93.5 31 58.2 6.7 NNW | 328 14.2 0.00 0.00 54.3 99.0
5/28/20 - 1700 95.8 23 52.0 7.5 NNW | 338 14.5 0.00 0.00 54.3 99.0
5/28/20 - 1600 97.6 15 41.8 6.6 NNW | 338 12.5 0.00 0.00 54.3 99.0
5/28/20 - 1500 97.9 15 42.7 4.4 W | 269 11.1 0.00 0.00 54.3 99.0
5/28/20 - 1400 95.9 16 42.1 4.5 SSE | 161 11.1 0.00 0.00 54.3 97.6
5/28/20 - 1300 91.6 27 52.2 5.8 SE | 129 11.8 0.00 0.00 54.3 93.8
5/28/20 - 1200 86.8 35 55.7 5.2 SE | 135 10.1 0.00 0.00 54.3 89.5
5/28/20 - 1100 83.2 41 57.1 2.7 SE | 132 7.1 0.00 0.00 54.3 85.6
5/28/20 - 1000 76.3 49 55.9 2.2 ESE | 122 7.1 0.00 0.00 54.3 80.7
5/28/20 - 0900 71.2 59 56.3 2.0 S | 169 6.1 0.00 0.00 54.3 73.7
5/28/20 - 0800 63.5 74 55.0 0.5 ENE | 77 3.4 0.00 0.00 54.3 71.7
5/28/20 - 0700 54.9 89 51.9 0.2 ESE | 109 2.4 0.00 0.00 54.3 71.7
Max 98.6 90 58.2 7.8 - 18.5 0.02 0.02 70.8 99.3
Avg 72.0 56 53.1 3.3 - 8.6 0.00 - - -
Min 53.8 15 41.8 0.0 - 0.0 0.00 0.00 53.1 58.4
Total - - - - - - 0.02 - - -
Tip: Bookmark this page for easy future reference